Time;durP1;ratioP1;P1;durP2;ratioP2;P2;SDS_P1;SDS_P2;PMS_P1;PMS_P2;Temp;Humidity;BMP_temperature;BMP_pressure;BME280_temperature;BME280_humidity;BME280_pressure;Samples;Min_cycle;Max_cycle;Signal;HPM_P1;HPM_P2
2023/07/02 00:00:41;;;;;;;6.68;1.75;;;;;;;12.94;56.19;100305.50;4960665;28;20045;-71
2023/07/02 00:03:06;;;;;;;6.28;2.00;;;;;;;13.38;55.08;100304.63;4964225;28;20061;-71
2023/07/02 00:05:32;;;;;;;6.38;2.15;;;;;;;13.28;55.17;100307.81;4960684;28;20902;-71
2023/07/02 00:07:57;;;;;;;6.03;2.67;;;;;;;13.35;55.10;100307.44;4960882;28;20506;-71
2023/07/02 00:10:25;;;;;;;8.00;2.53;;;;;;;13.20;55.61;100312.66;4961329;28;20042;-70
2023/07/02 00:12:50;;;;;;;4.15;1.92;;;;;;;13.25;55.00;100313.25;4962005;28;20729;-69
2023/07/02 00:15:16;;;;;;;7.45;2.00;;;;;;;13.29;54.92;100313.88;4961706;28;20049;-69
2023/07/02 00:17:42;;;;;;;6.32;2.47;;;;;;;13.27;55.29;100310.50;4963479;28;20038;-69
2023/07/02 00:20:15;;;;;;;6.75;2.17;;;;;;;13.52;54.44;100315.97;4964315;28;20034;-69
2023/07/02 00:22:44;;;;;;;8.25;2.15;;;;;;;13.51;54.43;100311.63;4963193;28;20963;-69
2023/07/02 00:25:10;;;;;;;6.93;2.20;;;;;;;13.60;54.03;100309.44;4961221;28;20124;-70
2023/07/02 00:27:37;;;;;;;4.93;2.13;;;;;;;13.32;54.33;100311.94;4959177;28;20145;-69
2023/07/02 00:30:03;;;;;;;6.70;1.83;;;;;;;13.03;54.98;100311.06;4961632;28;20034;-69
2023/07/02 00:32:28;;;;;;;3.13;1.48;;;;;;;13.40;54.05;100321.13;4963307;28;20045;-69
2023/07/02 00:34:54;;;;;;;11.48;2.42;;;;;;;13.21;54.60;100321.41;4957285;28;20073;-70
2023/07/02 00:37:19;;;;;;;9.85;2.22;;;;;;;13.33;54.28;100323.28;4959362;28;20057;-69
2023/07/02 00:39:44;;;;;;;12.10;2.28;;;;;;;13.23;54.51;100319.53;4959898;28;20039;-70
2023/07/02 00:42:13;;;;;;;7.40;2.13;;;;;;;13.18;54.63;100318.94;4963175;28;20035;-69
2023/07/02 00:44:40;;;;;;;11.45;2.78;;;;;;;12.70;55.71;100309.47;4957090;28;20309;-69
2023/07/02 00:47:12;;;;;;;7.65;1.60;;;;;;;13.24;54.66;100321.19;4961005;28;20132;-71
2023/07/02 00:49:39;;;;;;;5.65;1.92;;;;;;;13.37;54.12;100319.53;4975019;28;20042;-70
2023/07/02 00:52:05;;;;;;;7.80;1.75;;;;;;;13.06;54.48;100316.09;4976825;28;20030;-69
2023/07/02 00:54:31;;;;;;;6.97;1.95;;;;;;;13.10;54.33;100317.63;4940925;28;20165;-68
2023/07/02 00:57:02;;;;;;;8.23;2.22;;;;;;;13.16;54.21;100315.56;4962285;28;20045;-74
2023/07/02 00:59:29;;;;;;;6.55;1.60;;;;;;;12.70;55.38;100314.72;4967431;28;20042;-74
2023/07/02 01:01:56;;;;;;;8.02;2.15;;;;;;;12.79;54.76;100315.13;4982354;28;20049;-74
2023/07/02 01:04:27;;;;;;;7.75;1.83;;;;;;;12.37;56.09;100316.59;4962361;28;20137;-74
2023/07/02 01:06:57;;;;;;;16.00;2.95;;;;;;;12.59;55.52;100319.69;4943277;28;20038;-71
2023/07/02 01:09:26;;;;;;;4.85;2.50;;;;;;;12.87;54.64;100310.25;4964390;28;20038;-76
2023/07/02 01:12:02;;;;;;;14.70;3.10;;;;;;;12.63;55.57;100310.72;4948857;28;20026;-70
2023/07/02 01:14:38;;;;;;;10.38;2.25;;;;;;;12.62;55.26;100301.16;4980984;28;20054;-71
2023/07/02 01:17:05;;;;;;;12.25;2.67;;;;;;;12.66;54.83;100302.69;4957373;28;20034;-70
2023/07/02 01:19:51;;;;;;;8.98;2.03;;;;;;;12.52;55.41;100307.88;4959671;28;20069;-64
2023/07/02 01:22:22;;;;;;;12.13;2.42;;;;;;;12.51;55.25;100308.78;4961062;28;20045;-65
2023/07/02 01:24:48;;;;;;;7.88;2.25;;;;;;;12.47;55.39;100304.69;4959395;28;20034;-64
2023/07/02 01:27:15;;;;;;;11.70;3.50;;;;;;;12.41;55.55;100316.34;4982333;28;20041;-64
2023/07/02 01:29:41;;;;;;;9.32;2.05;;;;;;;12.47;55.21;100312.56;4958264;28;20519;-64
2023/07/02 01:32:08;;;;;;;9.63;2.78;;;;;;;12.47;54.96;100315.16;4961595;28;20465;-67
2023/07/02 01:34:34;;;;;;;21.55;3.00;;;;;;;12.40;55.25;100311.19;4959017;28;20043;-64
2023/07/02 01:37:00;;;;;;;11.48;2.72;;;;;;;12.24;55.81;100312.03;4961877;28;20229;-64
2023/07/02 01:39:26;;;;;;;12.77;2.90;;;;;;;12.20;55.59;100314.91;4946997;28;20945;-65
2023/07/02 01:41:53;;;;;;;8.43;2.75;;;;;;;11.98;56.21;100315.28;4960382;28;20042;-65
2023/07/02 01:44:20;;;;;;;9.63;2.75;;;;;;;12.08;55.88;100321.69;4959734;28;20038;-64
2023/07/02 01:46:48;;;;;;;14.07;4.72;;;;;;;12.13;55.52;100318.81;4962157;28;20121;-68
2023/07/02 01:49:15;;;;;;;16.00;4.40;;;;;;;12.15;55.41;100312.56;4958434;28;20043;-68
2023/07/02 01:51:44;;;;;;;16.85;5.05;;;;;;;12.09;55.76;100318.16;4962704;28;20054;-68
2023/07/02 01:54:09;;;;;;;11.63;3.20;;;;;;;12.11;55.57;100311.06;4951136;28;20070;-68
2023/07/02 01:56:37;;;;;;;10.52;3.47;;;;;;;12.11;55.25;100313.69;4976981;28;20032;-67
2023/07/02 01:59:02;;;;;;;11.90;5.05;;;;;;;12.28;54.60;100317.97;4960151;28;21435;-68
2023/07/02 02:01:28;;;;;;;15.02;3.25;;;;;;;12.06;55.00;100323.56;4960114;28;20034;-68
2023/07/02 02:03:53;;;;;;;11.90;4.00;;;;;;;12.21;54.35;100320.09;4961461;28;20500;-68
2023/07/02 02:06:19;;;;;;;14.20;4.72;;;;;;;11.95;55.51;100324.13;4958305;28;20030;-67
2023/07/02 02:08:44;;;;;;;15.43;3.70;;;;;;;11.61;55.81;100322.47;4977026;28;20114;-68
2023/07/02 02:11:10;;;;;;;15.00;4.28;;;;;;;11.92;54.87;100321.69;4959490;28;20114;-70
2023/07/02 02:13:36;;;;;;;13.57;3.90;;;;;;;12.09;54.34;100310.31;4959819;28;20042;-69
2023/07/02 02:16:01;;;;;;;14.00;3.67;;;;;;;11.81;55.06;100314.41;4962369;28;20069;-69
2023/07/02 02:18:27;;;;;;;8.40;3.15;;;;;;;11.85;54.67;100321.19;4943291;28;20038;-69
2023/07/02 02:20:53;;;;;;;11.45;3.85;;;;;;;11.71;54.97;100318.44;4963898;28;20706;-69
2023/07/02 02:23:19;;;;;;;17.95;4.15;;;;;;;11.70;54.77;100321.97;4962477;28;20483;-69
2023/07/02 02:25:45;;;;;;;17.20;3.90;;;;;;;11.84;54.25;100321.25;4977458;28;20121;-69
2023/07/02 02:28:10;;;;;;;13.15;3.88;;;;;;;11.52;55.17;100322.94;4960136;28;20036;-66
2023/07/02 02:30:36;;;;;;;13.63;5.22;;;;;;;11.80;54.14;100325.00;4963733;28;20033;-67
2023/07/02 02:33:01;;;;;;;15.90;4.30;;;;;;;11.71;54.16;100321.06;4964387;28;20184;-66
2023/07/02 02:35:27;;;;;;;17.20;4.40;;;;;;;11.41;54.66;100326.97;4980021;28;20035;-66
2023/07/02 02:37:52;;;;;;;10.68;3.85;;;;;;;11.66;53.91;100333.53;4959989;28;20099;-66
2023/07/02 02:40:19;;;;;;;11.70;4.15;;;;;;;11.64;53.78;100330.16;4962791;28;20061;-68
2023/07/02 02:42:45;;;;;;;16.25;4.03;;;;;;;11.57;54.13;100315.69;4964868;28;20038;-68
2023/07/02 02:45:10;;;;;;;9.55;4.13;;;;;;;11.57;53.90;100318.31;4962549;28;20042;-68
2023/07/02 02:47:36;;;;;;;16.20;4.78;;;;;;;11.42;54.61;100323.44;4961079;28;20666;-68
2023/07/02 02:50:04;;;;;;;21.02;4.28;;;;;;;11.63;53.86;100325.84;4963714;28;20754;-68
2023/07/02 02:52:30;;;;;;;14.88;5.28;;;;;;;11.32;54.67;100327.44;4964605;28;20038;-69
2023/07/02 02:54:56;;;;;;;18.73;5.85;;;;;;;11.78;53.76;100329.47;4978416;28;20043;-67
2023/07/02 02:57:21;;;;;;;17.83;4.82;;;;;;;11.59;54.08;100325.16;4963858;28;20044;-67
2023/07/02 02:59:47;;;;;;;16.92;4.68;;;;;;;11.50;54.24;100325.66;4962341;28;20053;-67
2023/07/02 03:02:12;;;;;;;20.92;4.95;;;;;;;11.59;54.02;100319.91;4966905;28;20030;-66
2023/07/02 03:04:41;;;;;;;24.63;5.07;;;;;;;11.60;53.94;100321.63;4958177;28;20796;-66
2023/07/02 03:07:07;;;;;;;9.70;3.60;;;;;;;11.82;53.21;100321.34;4961184;28;20053;-68
2023/07/02 03:09:33;;;;;;;17.80;4.80;;;;;;;11.92;52.81;100316.47;4977521;28;20049;-66
2023/07/02 03:12:01;;;;;;;26.63;4.50;;;;;;;11.78;53.01;100314.59;4979616;28;20790;-70
2023/07/02 03:14:27;;;;;;;17.35;4.50;;;;;;;11.84;52.83;100324.75;4960658;28;20048;-69
2023/07/02 03:16:55;;;;;;;17.05;5.28;;;;;;;11.74;53.25;100328.75;4964402;28;20038;-69
2023/07/02 03:19:21;;;;;;;22.92;6.00;;;;;;;11.80;53.09;100322.38;4962923;28;20054;-69
2023/07/02 03:21:47;;;;;;;24.27;4.82;;;;;;;11.41;54.05;100328.75;4980732;28;20034;-69
2023/07/02 03:24:13;;;;;;;18.83;4.80;;;;;;;11.31;54.48;100324.91;4961420;28;20514;-68
2023/07/02 03:26:39;;;;;;;17.17;4.63;;;;;;;11.79;53.20;100324.13;4960580;28;20581;-69
2023/07/02 03:29:06;;;;;;;28.33;7.32;;;;;;;11.44;53.95;100331.19;4979043;28;20133;-69
2023/07/02 03:31:31;;;;;;;19.65;6.32;;;;;;;11.48;54.17;100332.72;4962375;28;20133;-69
2023/07/02 03:33:57;;;;;;;21.48;4.97;;;;;;;11.44;53.86;100333.81;4964656;28;20049;-69
2023/07/02 03:36:22;;;;;;;21.00;5.07;;;;;;;11.65;53.62;100334.47;4976231;28;20045;-67
2023/07/02 03:38:48;;;;;;;19.05;4.60;;;;;;;11.95;53.10;100339.00;4964096;28;20161;-71
2023/07/02 03:41:13;;;;;;;16.23;5.65;;;;;;;11.90;52.97;100333.19;4962035;28;20048;-64
2023/07/02 03:43:38;;;;;;;21.73;5.80;;;;;;;11.93;52.91;100333.84;4962961;28;20030;-64
2023/07/02 03:46:04;;;;;;;24.17;4.80;;;;;;;11.80;53.19;100335.47;4964271;28;20117;-65
2023/07/02 03:48:30;;;;;;;19.52;5.07;;;;;;;11.85;53.08;100347.38;4962434;28;20217;-65
2023/07/02 03:50:55;;;;;;;17.50;4.20;;;;;;;12.00;52.77;100344.84;4961818;28;20273;-65
2023/07/02 03:53:21;;;;;;;16.27;4.40;;;;;;;12.01;53.10;100341.31;4957078;28;20065;-65
2023/07/02 03:55:46;;;;;;;18.15;4.57;;;;;;;12.04;53.10;100347.22;4964030;28;20049;-66
2023/07/02 03:58:12;;;;;;;16.63;5.05;;;;;;;12.10;52.82;100351.28;4961127;28;20133;-66
2023/07/02 04:00:38;;;;;;;21.35;6.35;;;;;;;11.95;53.57;100346.88;4962584;28;20069;-64
2023/07/02 04:03:04;;;;;;;17.33;5.03;;;;;;;11.55;54.74;100347.19;4963590;28;20037;-70
2023/07/02 04:05:29;;;;;;;21.80;5.88;;;;;;;11.15;56.07;100362.34;4960180;28;20039;-70
2023/07/02 04:07:58;;;;;;;22.13;4.88;;;;;;;11.62;54.84;100355.56;4979439;28;20038;-66
2023/07/02 04:10:23;;;;;;;24.80;5.93;;;;;;;11.78;54.59;100355.66;4960154;28;20599;-72
2023/07/02 04:12:49;;;;;;;20.83;6.55;;;;;;;11.86;54.73;100349.03;4965397;28;20045;-68
2023/07/02 04:15:15;;;;;;;21.38;5.40;;;;;;;12.10;53.82;100355.69;4959310;28;20094;-70
2023/07/02 04:17:40;;;;;;;20.75;5.25;;;;;;;12.29;53.49;100353.75;4965513;28;20041;-71
2023/07/02 04:20:07;;;;;;;21.52;5.82;;;;;;;12.28;53.40;100355.50;4982100;28;20038;-71
2023/07/02 04:22:33;;;;;;;22.13;5.93;;;;;;;12.61;52.45;100351.91;4965337;28;20034;-72
2023/07/02 04:24:58;;;;;;;23.73;5.43;;;;;;;11.79;54.10;100355.53;4968722;28;20085;-69
2023/07/02 04:27:24;;;;;;;25.63;5.57;;;;;;;12.13;53.40;100353.72;4962015;28;20460;-70
2023/07/02 04:29:50;;;;;;;27.08;6.10;;;;;;;12.41;52.82;100353.03;4981100;28;20042;-69
2023/07/02 04:32:15;;;;;;;35.95;7.15;;;;;;;12.62;52.63;100344.88;4964956;28;20034;-69
2023/07/02 04:34:41;;;;;;;18.48;5.50;;;;;;;12.29;53.16;100354.56;4978255;28;20037;-72
2023/07/02 04:37:08;;;;;;;22.67;5.45;;;;;;;12.29;52.75;100344.09;4963562;28;20525;-69
2023/07/02 04:39:34;;;;;;;24.27;5.82;;;;;;;12.52;52.72;100339.34;4959184;28;20049;-69
2023/07/02 04:41:59;;;;;;;16.58;4.93;;;;;;;12.57;52.60;100350.41;4960569;28;20038;-70
2023/07/02 04:44:29;;;;;;;16.90;4.68;;;;;;;12.88;51.66;100353.91;4978546;28;20553;-68
2023/07/02 04:46:57;;;;;;;21.88;6.57;;;;;;;12.41;52.13;100357.44;4967308;28;20038;-71
2023/07/02 04:49:22;;;;;;;19.38;5.28;;;;;;;12.78;51.52;100355.38;4944355;28;20865;-68
2023/07/02 04:51:50;;;;;;;15.20;5.85;;;;;;;12.73;51.82;100360.03;4963498;28;20065;-68
2023/07/02 04:54:18;;;;;;;20.10;4.53;;;;;;;12.59;51.65;100364.25;4957690;28;20472;-70
2023/07/02 04:56:43;;;;;;;20.42;5.00;;;;;;;12.70;52.16;100361.91;4962153;28;20038;-69
2023/07/02 04:59:08;;;;;;;19.98;5.50;;;;;;;12.56;52.21;100359.22;4961866;28;20048;-69
2023/07/02 05:01:34;;;;;;;23.73;5.35;;;;;;;12.50;52.22;100370.88;4961886;28;20133;-67
2023/07/02 05:03:59;;;;;;;21.88;5.63;;;;;;;11.96;53.86;100374.75;4963348;28;20035;-67
2023/07/02 05:06:25;;;;;;;22.17;4.90;;;;;;;12.67;52.13;100366.47;4963953;28;20089;-69
2023/07/02 05:08:50;;;;;;;24.33;5.05;;;;;;;12.84;51.58;100365.50;4959957;28;20416;-70
2023/07/02 05:11:15;;;;;;;20.42;5.22;;;;;;;12.07;52.99;100359.31;4962349;28;20508;-73
2023/07/02 05:13:41;;;;;;;27.40;5.72;;;;;;;12.31;52.38;100358.88;4960975;28;20042;-66
2023/07/02 05:16:06;;;;;;;15.23;4.38;;;;;;;12.34;51.84;100348.25;4964143;28;20035;-71
2023/07/02 05:18:32;;;;;;;20.00;5.03;;;;;;;12.79;51.10;100351.84;4960917;28;20503;-70
2023/07/02 05:20:57;;;;;;;34.25;6.05;;;;;;;13.57;49.24;100355.09;4967212;28;20773;-69
2023/07/02 05:23:22;;;;;;;19.63;6.10;;;;;;;13.37;48.77;100358.06;4958217;28;20502;-69
2023/07/02 05:25:48;;;;;;;21.58;6.00;;;;;;;13.32;49.24;100358.34;4963029;28;20053;-67
2023/07/02 05:28:13;;;;;;;13.40;4.70;;;;;;;13.91;48.95;100367.00;4958045;28;20042;-71
2023/07/02 05:30:39;;;;;;;17.10;4.63;;;;;;;15.39;43.96;100367.97;4962755;28;20046;-71
2023/07/02 05:33:04;;;;;;;19.35;5.32;;;;;;;14.47;45.80;100360.91;4967813;28;20169;-70
2023/07/02 05:35:30;;;;;;;22.80;5.10;;;;;;;14.55;45.41;100367.34;4951842;28;20485;-71
2023/07/02 05:37:55;;;;;;;23.08;4.93;;;;;;;15.41;43.21;100363.44;4962940;28;20041;-70
2023/07/02 05:40:20;;;;;;;17.33;5.07;;;;;;;14.24;46.00;100373.72;4959101;28;20515;-68
2023/07/02 05:42:46;;;;;;;22.10;5.70;;;;;;;14.52;45.76;100383.34;4964209;28;20039;-67
2023/07/02 05:45:11;;;;;;;23.50;5.93;;;;;;;15.87;43.02;100368.16;4961597;28;20168;-67
2023/07/02 05:47:37;;;;;;;16.35;5.25;;;;;;;17.01;40.33;100370.50;4962399;28;20066;-75
2023/07/02 05:50:03;;;;;;;20.05;4.63;;;;;;;17.86;38.63;100364.88;4955821;28;20042;-68
2023/07/02 05:52:30;;;;;;;18.92;4.20;;;;;;;17.03;39.29;100358.88;4958351;28;20675;-69
2023/07/02 05:54:56;;;;;;;16.27;4.85;;;;;;;17.39;38.73;100353.53;4959602;28;20745;-69
2023/07/02 05:57:21;;;;;;;20.20;4.78;;;;;;;18.20;37.42;100364.84;4959732;28;20030;-69
2023/07/02 05:59:47;;;;;;;16.27;4.82;;;;;;;20.23;34.33;100364.50;4961839;28;20487;-68
2023/07/02 06:02:12;;;;;;;14.90;3.78;;;;;;;18.08;36.68;100371.09;4961029;28;20039;-68
2023/07/02 06:04:37;;;;;;;30.38;5.65;;;;;;;15.98;40.96;100380.56;4962558;28;20038;-68
2023/07/02 06:07:03;;;;;;;13.88;3.88;;;;;;;14.25;45.34;100385.88;4964092;28;20038;-68
2023/07/02 06:09:28;;;;;;;20.80;5.80;;;;;;;14.33;45.30;100388.88;4962466;28;20778;-67
2023/07/02 06:11:54;;;;;;;17.85;4.43;;;;;;;13.88;46.07;100385.59;4963865;28;20557;-67
2023/07/02 06:14:19;;;;;;;11.52;4.03;;;;;;;14.17;46.08;100397.84;4963380;28;20035;-70
2023/07/02 06:16:45;;;;;;;19.08;4.88;;;;;;;15.31;43.44;100397.47;4968190;28;20483;-68
2023/07/02 06:19:10;;;;;;;17.55;3.53;;;;;;;16.97;39.33;100391.00;4965046;28;20034;-67
2023/07/02 06:21:36;;;;;;;17.88;4.18;;;;;;;16.66;40.19;100400.31;4959003;28;20180;-67
2023/07/02 06:24:02;;;;;;;14.73;3.20;;;;;;;15.89;41.35;100397.88;4947875;28;20042;-68
2023/07/02 06:26:27;;;;;;;14.75;3.75;;;;;;;15.07;42.78;100402.53;4961524;28;20538;-70
2023/07/02 06:28:52;;;;;;;12.15;3.53;;;;;;;14.48;44.50;100420.44;4963771;28;21003;-74
2023/07/02 06:31:20;;;;;;;16.25;4.70;;;;;;;13.38;46.97;100414.84;4962889;28;20122;-71
2023/07/02 06:33:46;;;;;;;22.42;3.03;;;;;;;13.69;45.73;100413.91;4967461;28;20149;-64
2023/07/02 06:36:13;;;;;;;11.00;3.30;;;;;;;15.08;43.10;100421.81;4964277;28;20802;-65
2023/07/02 06:38:38;;;;;;;14.30;4.75;;;;;;;17.54;37.46;100399.94;4958820;28;20039;-65
2023/07/02 06:41:04;;;;;;;15.38;4.05;;;;;;;19.61;34.33;100415.88;4963983;28;20451;-66
2023/07/02 06:43:29;;;;;;;12.27;3.20;;;;;;;19.54;34.23;100415.53;4962126;28;20133;-68
2023/07/02 06:45:55;;;;;;;11.85;3.70;;;;;;;19.87;33.03;100417.13;4963306;28;20145;-72
2023/07/02 06:48:21;;;;;;;12.57;3.08;;;;;;;20.66;32.48;100416.41;4944417;28;20042;-73
2023/07/02 06:50:47;;;;;;;12.30;3.22;;;;;;;20.40;32.42;100412.59;4965702;28;20038;-71
2023/07/02 06:53:13;;;;;;;14.20;3.53;;;;;;;21.03;30.62;100420.19;4965112;28;20030;-70
2023/07/02 06:55:39;;;;;;;9.32;3.45;;;;;;;21.27;31.13;100419.75;4963883;28;20061;-69
2023/07/02 06:58:08;;;;;;;15.52;3.47;;;;;;;18.39;35.31;100425.91;4978853;28;20739;-77
2023/07/02 07:00:35;;;;;;;15.88;3.10;;;;;;;15.88;39.91;100429.59;4983550;28;20038;-76
2023/07/02 07:03:04;;;;;;;11.20;3.10;;;;;;;15.99;39.87;100414.75;4986978;28;20042;-77
2023/07/02 07:05:31;;;;;;;12.93;4.03;;;;;;;15.37;41.54;100436.56;4945192;28;20042;-70
2023/07/02 07:07:57;;;;;;;13.77;3.50;;;;;;;15.15;41.88;100442.38;4961422;28;20044;-72
2023/07/02 07:10:23;;;;;;;14.23;2.15;;;;;;;13.89;44.39;100452.94;4977538;28;20721;-71
2023/07/02 07:12:53;;;;;;;14.20;2.67;;;;;;;14.06;45.94;100458.97;4966073;28;20042;-69
2023/07/02 07:15:18;;;;;;;8.15;2.50;;;;;;;13.66;47.46;100459.56;4959601;28;20043;-67
2023/07/02 07:17:44;;;;;;;9.75;2.55;;;;;;;13.69;47.79;100466.44;4960375;28;20038;-68
2023/07/02 07:20:10;;;;;;;9.85;2.33;;;;;;;14.29;47.26;100468.88;4964051;28;20034;-67
2023/07/02 07:22:35;;;;;;;11.60;1.92;;;;;;;17.54;39.71;100468.63;4958726;28;20728;-69
2023/07/02 07:25:03;;;;;;;9.73;3.17;;;;;;;19.61;35.35;100464.44;4960506;28;20035;-69
2023/07/02 07:27:29;;;;;;;10.80;2.03;;;;;;;20.23;34.75;100464.50;4960232;28;20088;-70
2023/07/02 07:29:54;;;;;;;9.00;2.00;;;;;;;21.81;31.58;100470.59;4975690;28;20707;-75
2023/07/02 07:32:23;;;;;;;7.65;2.33;;;;;;;17.71;37.25;100479.72;4960439;28;20581;-66
2023/07/02 07:34:48;;;;;;;15.73;2.83;;;;;;;15.30;41.39;100481.81;4960579;28;20039;-67
2023/07/02 07:37:13;;;;;;;8.90;2.28;;;;;;;14.30;43.38;100478.47;4965998;28;20555;-67
2023/07/02 07:39:39;;;;;;;14.70;3.13;;;;;;;17.29;37.99;100482.81;4954766;28;20129;-68
2023/07/02 07:42:05;;;;;;;9.30;2.25;;;;;;;18.30;35.17;100476.91;4961727;28;20026;-67
2023/07/02 07:44:30;;;;;;;11.25;1.85;;;;;;;20.26;32.33;100481.00;4959490;28;20208;-68
2023/07/02 07:46:56;;;;;;;8.32;1.83;;;;;;;20.87;30.95;100469.41;4962865;28;20172;-67
2023/07/02 07:49:24;;;;;;;9.40;2.83;;;;;;;21.01;30.67;100480.59;4976186;28;20073;-68
2023/07/02 07:51:49;;;;;;;16.35;3.25;;;;;;;21.92;29.15;100473.09;4961222;28;20085;-67
2023/07/02 07:54:15;;;;;;;7.28;2.53;;;;;;;21.08;30.09;100492.34;4957986;28;20034;-68
2023/07/02 07:56:41;;;;;;;13.40;2.88;;;;;;;20.19;30.93;100468.34;4958802;28;20380;-66
2023/07/02 07:59:06;;;;;;;10.80;2.85;;;;;;;20.63;30.19;100458.31;4963848;28;20065;-67
2023/07/02 08:01:32;;;;;;;11.05;1.67;;;;;;;20.42;30.24;100480.50;4946881;28;20129;-68
2023/07/02 08:03:57;;;;;;;14.57;2.58;;;;;;;19.61;31.22;100472.38;4962591;28;20069;-67
2023/07/02 08:06:22;;;;;;;4.38;2.80;;;;;;;17.85;34.13;100479.50;4959782;28;20419;-67
2023/07/02 08:08:48;;;;;;;11.10;2.97;;;;;;;16.31;37.29;100481.97;4961735;28;20233;-68
2023/07/02 08:11:13;;;;;;;8.70;2.10;;;;;;;16.98;36.01;100485.09;4963102;28;20035;-68
2023/07/02 08:13:39;;;;;;;12.73;2.47;;;;;;;19.14;32.37;100485.13;4957571;28;20042;-66
2023/07/02 08:16:04;;;;;;;7.15;1.75;;;;;;;20.12;30.32;100479.50;4961674;28;20038;-67
2023/07/02 08:18:30;;;;;;;6.20;1.45;;;;;;;19.64;30.00;100497.81;4973186;28;20046;-67
2023/07/02 08:20:58;;;;;;;7.22;1.85;;;;;;;18.59;31.23;100497.56;4964359;28;20372;-68
2023/07/02 08:23:24;;;;;;;8.88;1.50;;;;;;;15.86;35.82;100497.38;4949535;28;20039;-67
2023/07/02 08:25:49;;;;;;;7.85;1.92;;;;;;;16.13;36.07;100505.19;4961365;28;20049;-67
2023/07/02 08:28:15;;;;;;;6.60;0.95;;;;;;;16.49;36.56;100506.22;4963017;28;20724;-67
2023/07/02 08:30:40;;;;;;;5.80;1.42;;;;;;;17.11;35.28;100503.50;4959493;28;20527;-67
2023/07/02 08:33:06;;;;;;;4.47;1.27;;;;;;;17.91;34.71;100502.81;4966898;28;20042;-67
2023/07/02 08:35:31;;;;;;;4.40;1.30;;;;;;;17.24;35.94;100506.91;4957588;28;20048;-68
2023/07/02 08:37:56;;;;;;;6.47;1.08;;;;;;;17.01;35.96;100519.19;4980224;28;20057;-66
2023/07/02 08:40:22;;;;;;;5.07;1.08;;;;;;;17.56;34.57;100519.56;4963535;28;20038;-68
2023/07/02 08:42:48;;;;;;;8.35;1.08;;;;;;;16.06;37.10;100531.16;4960029;28;20045;-68
2023/07/02 08:45:16;;;;;;;8.32;1.20;;;;;;;15.63;38.00;100528.75;4962530;28;20038;-67
2023/07/02 08:47:45;;;;;;;5.68;1.50;;;;;;;15.93;38.58;100541.66;4957264;28;20173;-68
2023/07/02 08:50:11;;;;;;;11.52;1.48;;;;;;;17.75;35.58;100531.38;4964046;28;20554;-66
2023/07/02 08:52:37;;;;;;;9.88;1.83;;;;;;;19.67;32.08;100527.56;4958453;28;20034;-68
2023/07/02 08:55:03;;;;;;;7.93;1.60;;;;;;;19.33;31.18;100523.38;4964838;28;20045;-68
2023/07/02 08:57:28;;;;;;;12.07;1.15;;;;;;;20.63;29.98;100519.38;4962429;28;20125;-67
2023/07/02 08:59:54;;;;;;;8.43;1.60;;;;;;;19.99;30.44;100534.56;4959496;28;20062;-67
2023/07/02 09:02:32;;;;;;;5.05;1.02;;;;;;;19.31;31.84;100526.13;4963283;28;20066;-67
2023/07/02 09:05:04;;;;;;;7.55;1.17;;;;;;;18.05;33.40;100539.63;4961037;28;20398;-66
2023/07/02 09:07:30;;;;;;;7.03;1.88;;;;;;;19.64;31.15;100538.44;4960378;28;20034;-67
2023/07/02 09:09:55;;;;;;;14.23;1.30;;;;;;;19.67;31.48;100532.84;4962388;28;20042;-68
2023/07/02 09:12:22;;;;;;;6.70;1.52;;;;;;;18.22;32.24;100526.91;4975406;28;20069;-66
2023/07/02 09:14:54;;;;;;;5.75;0.95;;;;;;;17.88;34.16;100542.72;4962425;28;20050;-67
2023/07/02 09:17:20;;;;;;;9.45;0.73;;;;;;;16.16;35.90;100552.47;4963593;28;20042;-67
2023/07/02 09:19:50;;;;;;;3.33;0.77;;;;;;;16.37;36.53;100553.59;4960727;28;20100;-66
2023/07/02 09:22:16;;;;;;;4.55;1.00;;;;;;;16.19;36.90;100552.25;4961392;28;20618;-68
2023/07/02 09:24:51;;;;;;;8.40;1.13;;;;;;;16.55;36.61;100558.53;4957963;28;20138;-67
2023/07/02 09:27:17;;;;;;;10.05;1.38;;;;;;;17.30;35.80;100561.09;4960306;28;20034;-67
2023/07/02 09:29:42;;;;;;;3.85;1.10;;;;;;;17.08;35.73;100564.47;4958607;28;20187;-68
2023/07/02 09:32:08;;;;;;;11.00;1.80;;;;;;;15.55;37.21;100567.94;4961379;28;20419;-67
2023/07/02 09:34:39;;;;;;;3.72;0.68;;;;;;;17.13;35.36;100549.13;4957891;28;20523;-68
2023/07/02 09:37:05;;;;;;;7.40;1.45;;;;;;;19.60;31.91;100557.38;4962638;28;20049;-67
2023/07/02 09:39:32;;;;;;;6.90;0.77;;;;;;;19.43;31.27;100550.78;4965723;28;20038;-68
2023/07/02 09:42:00;;;;;;;7.25;1.85;;;;;;;17.81;33.60;100550.25;4970395;28;20518;-67
2023/07/02 09:44:30;;;;;;;4.47;1.08;;;;;;;17.72;34.27;100568.63;4967042;28;20096;-67
2023/07/02 09:47:05;;;;;;;7.72;0.90;;;;;;;18.81;32.28;100554.88;4967096;28;20110;-67
2023/07/02 09:49:39;;;;;;;8.10;1.40;;;;;;;18.14;33.51;100563.66;4966497;28;20043;-67
2023/07/02 09:52:10;;;;;;;13.50;1.58;;;;;;;16.34;38.19;100571.44;4970435;28;20049;-68
2023/07/02 09:54:36;;;;;;;11.43;1.27;;;;;;;16.65;38.82;100575.44;4963971;28;20050;-67
2023/07/02 09:57:03;;;;;;;13.32;1.85;;;;;;;16.86;38.21;100578.34;4970439;28;20039;-67
2023/07/02 09:59:29;;;;;;;4.65;1.10;;;;;;;17.32;36.82;100579.47;4968538;28;20252;-66
2023/07/02 10:01:57;;;;;;;11.05;1.33;;;;;;;17.52;35.45;100570.94;4958236;28;20041;-66
2023/07/02 10:04:26;;;;;;;12.82;1.23;;;;;;;17.55;34.73;100576.00;4966281;28;20129;-67
2023/07/02 10:06:56;;;;;;;14.05;1.90;;;;;;;17.34;35.28;100556.44;4966395;28;20041;-68
2023/07/02 10:09:38;;;;;;;7.70;1.48;;;;;;;18.00;33.87;100570.00;4967970;28;20123;-68
2023/07/02 10:12:16;;;;;;;6.38;2.10;;;;;;;16.05;37.19;100579.56;4969216;28;20450;-68
2023/07/02 10:14:45;;;;;;;6.43;1.15;;;;;;;15.78;36.07;100576.97;4964295;28;20055;-67
2023/07/02 10:17:11;;;;;;;5.22;1.27;;;;;;;16.08;35.27;100570.59;4970358;28;20038;-67
2023/07/02 10:19:36;;;;;;;6.95;1.10;;;;;;;16.56;34.22;100565.53;4965804;28;20061;-68
2023/07/02 10:22:04;;;;;;;6.80;0.85;;;;;;;17.09;33.27;100558.25;4968887;28;20129;-66
2023/07/02 10:24:30;;;;;;;3.40;0.75;;;;;;;18.15;33.13;100578.56;4982684;28;20064;-66
2023/07/02 10:26:57;;;;;;;9.48;1.05;;;;;;;17.97;32.09;100586.13;4968157;28;20510;-68
2023/07/02 10:29:27;;;;;;;7.68;1.88;;;;;;;18.74;31.61;100586.31;4966687;28;20562;-67
2023/07/02 10:31:54;;;;;;;5.15;1.48;;;;;;;18.11;32.52;100585.88;4970501;28;20041;-67
2023/07/02 10:34:33;;;;;;;10.32;1.83;;;;;;;16.46;34.54;100586.41;4968818;28;20043;-67
2023/07/02 10:37:02;;;;;;;5.28;1.35;;;;;;;17.24;33.98;100588.78;4972617;28;20076;-68
2023/07/02 10:39:32;;;;;;;9.07;0.98;;;;;;;17.33;32.61;100581.16;4967508;28;20614;-65
2023/07/02 10:42:07;;;;;;;5.57;0.82;;;;;;;17.60;31.99;100594.16;4985147;28;20721;-68
2023/07/02 10:44:33;;;;;;;3.33;0.73;;;;;;;17.99;30.67;100600.91;4964833;28;20691;-66
2023/07/02 10:47:03;;;;;;;4.38;1.05;;;;;;;17.89;30.25;100591.13;4965049;28;20522;-68
2023/07/02 10:49:34;;;;;;;3.75;0.70;;;;;;;17.41;31.18;100594.66;4961462;28;20049;-65
2023/07/02 10:52:00;;;;;;;3.38;0.40;;;;;;;18.76;30.63;100594.13;4965995;28;20034;-67
2023/07/02 10:54:37;;;;;;;4.18;0.77;;;;;;;19.21;28.30;100605.56;4963514;28;20038;-66
2023/07/02 10:57:03;;;;;;;8.75;1.13;;;;;;;19.16;28.41;100602.41;4965491;28;20038;-68
2023/07/02 10:59:29;;;;;;;6.35;0.60;;;;;;;19.62;27.79;100600.50;4959191;28;20050;-66
2023/07/02 11:01:55;;;;;;;2.92;0.65;;;;;;;17.97;30.46;100597.53;4959679;28;21391;-66
2023/07/02 11:04:21;;;;;;;7.85;0.75;;;;;;;17.92;31.64;100612.91;4960259;28;20590;-66
2023/07/02 11:06:47;;;;;;;7.22;0.57;;;;;;;17.90;30.24;100620.09;4960893;28;20042;-67
2023/07/02 11:09:17;;;;;;;4.35;0.65;;;;;;;18.38;29.17;100619.16;4963278;28;20871;-67
2023/07/02 11:11:53;;;;;;;2.63;0.70;;;;;;;17.74;31.01;100616.91;4957945;28;20088;-68
2023/07/02 11:14:35;;;;;;;3.42;0.57;;;;;;;18.23;31.37;100619.38;4958650;28;20283;-68
2023/07/02 11:17:06;;;;;;;12.55;1.38;;;;;;;17.95;31.47;100620.59;4960565;28;20448;-67